FIN4MW EFHK-EFOU
Flight info
| Callsign | FIN4MW |
|---|---|
| Flight time | 0h 48m |
| Altitude | 36000 |
| Route | TEVRU Y75 SUVIB |
| Aircraft | A319/M-SDE1E2E3FGIJ1M1RWXY/LB1 |
Departure
| Time | 2026-05-06 08:24 |
|---|---|
| Airport | Helsinki Vantaa Airport (EFHK) |
Arrival
| Time | 2026-05-06 09:13 |
|---|---|
| Airport | Oulu Airport (EFOU) |
| Time | Latitude | Longitude | Altitude | Speed | Heading |
|---|---|---|---|---|---|
| 2026-05-06 08:02 | 60.31964 | 24.96740 | 167 ft | 0 kts | 174° |
| 2026-05-06 08:15 | 60.31975 | 24.96738 | 167 ft | 4 kts | 172° |
| 2026-05-06 08:15 | 60.32001 | 24.96726 | 167 ft | 4 kts | 154° |
| 2026-05-06 08:15 | 60.32019 | 24.96699 | 167 ft | 4 kts | 95° |
| 2026-05-06 08:16 | 60.32018 | 24.96683 | 167 ft | 0 kts | 47° |
| 2026-05-06 08:18 | 60.32022 | 24.96692 | 167 ft | 3 kts | 47° |
| 2026-05-06 08:18 | 60.32056 | 24.96767 | 167 ft | 9 kts | 48° |
| 2026-05-06 08:18 | 60.32100 | 24.96861 | 167 ft | 9 kts | 39° |
| 2026-05-06 08:19 | 60.32161 | 24.96835 | 166 ft | 10 kts | 330° |
| 2026-05-06 08:19 | 60.32226 | 24.96756 | 166 ft | 12 kts | 328° |
| 2026-05-06 08:19 | 60.32295 | 24.96671 | 167 ft | 13 kts | 329° |
| 2026-05-06 08:19 | 60.32375 | 24.96582 | 174 ft | 13 kts | 333° |
| 2026-05-06 08:20 | 60.32467 | 24.96477 | 174 ft | 19 kts | 328° |
| 2026-05-06 08:20 | 60.32583 | 24.96335 | 173 ft | 20 kts | 330° |
| 2026-05-06 08:20 | 60.32709 | 24.96192 | 172 ft | 21 kts | 330° |
| 2026-05-06 08:20 | 60.32834 | 24.96048 | 174 ft | 20 kts | 330° |
| 2026-05-06 08:21 | 60.32951 | 24.95911 | 177 ft | 18 kts | 330° |
| 2026-05-06 08:21 | 60.33053 | 24.95791 | 181 ft | 16 kts | 329° |
| 2026-05-06 08:21 | 60.33143 | 24.95637 | 180 ft | 17 kts | 316° |
| 2026-05-06 08:21 | 60.33211 | 24.95457 | 182 ft | 16 kts | 278° |
| 2026-05-06 08:22 | 60.33150 | 24.95263 | 178 ft | 18 kts | 225° |
| 2026-05-06 08:22 | 60.33095 | 24.95038 | 178 ft | 19 kts | 276° |
| 2026-05-06 08:22 | 60.33113 | 24.94791 | 181 ft | 16 kts | 277° |
| 2026-05-06 08:22 | 60.33120 | 24.94595 | 186 ft | 12 kts | 272° |
| 2026-05-06 08:23 | 60.33122 | 24.94470 | 190 ft | 8 kts | 272° |
| 2026-05-06 08:23 | 60.33105 | 24.94366 | 197 ft | 8 kts | 229° |
| 2026-05-06 08:23 | 60.33057 | 24.94265 | 195 ft | 13 kts | 227° |
| 2026-05-06 08:23 | 60.32858 | 24.93822 | 182 ft | 83 kts | 227° |
| 2026-05-06 08:24 | 60.32302 | 24.92594 | 173 ft | 151 kts | 227° |
| 2026-05-06 08:24 | 60.31573 | 24.91034 | 842 ft | 149 kts | 227° |
| 2026-05-06 08:24 | 60.30867 | 24.89529 | 1695 ft | 147 kts | 230° |
| 2026-05-06 08:24 | 60.30321 | 24.87797 | 2426 ft | 147 kts | 253° |
| 2026-05-06 08:25 | 60.30165 | 24.85692 | 2958 ft | 160 kts | 273° |
| 2026-05-06 08:25 | 60.30463 | 24.83402 | 3419 ft | 179 kts | 294° |
| 2026-05-06 08:25 | 60.30996 | 24.80922 | 3824 ft | 207 kts | 293° |
| 2026-05-06 08:25 | 60.31618 | 24.78107 | 4390 ft | 232 kts | 294° |
| 2026-05-06 08:26 | 60.32375 | 24.75101 | 5205 ft | 246 kts | 298° |
| 2026-05-06 08:26 | 60.33217 | 24.72053 | 6251 ft | 252 kts | 299° |
| 2026-05-06 08:26 | 60.34095 | 24.68943 | 7255 ft | 258 kts | 299° |
| 2026-05-06 08:26 | 60.35058 | 24.65872 | 8304 ft | 261 kts | 310° |
| 2026-05-06 08:27 | 60.36497 | 24.63607 | 9360 ft | 267 kts | 332° |
| 2026-05-06 08:27 | 60.38307 | 24.62634 | 10385 ft | 275 kts | 353° |
| 2026-05-06 08:27 | 60.40255 | 24.63095 | 11166 ft | 293 kts | 7° |
| 2026-05-06 08:27 | 60.42335 | 24.63995 | 11549 ft | 318 kts | 7° |
| 2026-05-06 08:28 | 60.44564 | 24.65013 | 12041 ft | 336 kts | 7° |
| 2026-05-06 08:28 | 60.46867 | 24.66097 | 12827 ft | 343 kts | 7° |
| 2026-05-06 08:28 | 60.49211 | 24.67207 | 13653 ft | 349 kts | 6° |
| 2026-05-06 08:28 | 60.51604 | 24.68325 | 14369 ft | 355 kts | 5° |
| 2026-05-06 08:29 | 60.54032 | 24.69446 | 15096 ft | 362 kts | 5° |
| 2026-05-06 08:29 | 60.56505 | 24.70580 | 15805 ft | 367 kts | 4° |
| 2026-05-06 08:29 | 60.59022 | 24.71729 | 16479 ft | 374 kts | 3° |
| 2026-05-06 08:29 | 60.61585 | 24.72905 | 17132 ft | 381 kts | 3° |
| 2026-05-06 08:30 | 60.64192 | 24.74106 | 17781 ft | 387 kts | 2° |
| 2026-05-06 08:30 | 60.66804 | 24.75309 | 18396 ft | 393 kts | 2° |
| 2026-05-06 08:30 | 60.69528 | 24.76570 | 18984 ft | 399 kts | 2° |
| 2026-05-06 08:30 | 60.72211 | 24.77819 | 19583 ft | 403 kts | 2° |
| 2026-05-06 08:31 | 60.74957 | 24.79098 | 20202 ft | 407 kts | 2° |
| 2026-05-06 08:31 | 60.77728 | 24.80391 | 20823 ft | 411 kts | 1° |
| 2026-05-06 08:31 | 60.80531 | 24.81696 | 21440 ft | 415 kts | 1° |
| 2026-05-06 08:31 | 60.83354 | 24.82751 | 22090 ft | 410 kts | 355° |
| 2026-05-06 08:32 | 60.86188 | 24.83430 | 22739 ft | 411 kts | 354° |
| 2026-05-06 08:32 | 60.89042 | 24.84102 | 23312 ft | 414 kts | 354° |
| 2026-05-06 08:32 | 60.91920 | 24.84774 | 23806 ft | 418 kts | 354° |
| 2026-05-06 08:32 | 60.94820 | 24.85448 | 24262 ft | 421 kts | 354° |
| 2026-05-06 08:33 | 60.97743 | 24.86132 | 24738 ft | 424 kts | 354° |
| 2026-05-06 08:33 | 61.00691 | 24.86830 | 25195 ft | 427 kts | 354° |
| 2026-05-06 08:33 | 61.03648 | 24.87537 | 25631 ft | 430 kts | 354° |
| 2026-05-06 08:33 | 61.06635 | 24.88254 | 26070 ft | 434 kts | 354° |
| 2026-05-06 08:34 | 61.09644 | 24.88974 | 26502 ft | 437 kts | 354° |
| 2026-05-06 08:34 | 61.15725 | 24.90431 | 27461 ft | 443 kts | 353° |
| 2026-05-06 08:34 | 61.18793 | 24.91173 | 27881 ft | 446 kts | 353° |
| 2026-05-06 08:35 | 61.21882 | 24.91923 | 28271 ft | 449 kts | 353° |
| 2026-05-06 08:35 | 61.24996 | 24.92675 | 28659 ft | 452 kts | 354° |
| 2026-05-06 08:35 | 61.28128 | 24.93431 | 29033 ft | 455 kts | 354° |
| 2026-05-06 08:35 | 61.31282 | 24.94196 | 29409 ft | 458 kts | 354° |
| 2026-05-06 08:36 | 61.34460 | 24.94973 | 29766 ft | 461 kts | 354° |
| 2026-05-06 08:36 | 61.37657 | 24.95754 | 30100 ft | 464 kts | 354° |
| 2026-05-06 08:36 | 61.40873 | 24.96537 | 30386 ft | 467 kts | 354° |
| 2026-05-06 08:36 | 61.44107 | 24.97322 | 30670 ft | 469 kts | 354° |
| 2026-05-06 08:37 | 61.47355 | 24.98110 | 31076 ft | 470 kts | 355° |
| 2026-05-06 08:37 | 61.50605 | 24.98905 | 31445 ft | 470 kts | 356° |
| 2026-05-06 08:37 | 61.53854 | 24.99709 | 31813 ft | 471 kts | 356° |
| 2026-05-06 08:37 | 61.57115 | 25.00520 | 32175 ft | 471 kts | 356° |
| 2026-05-06 08:38 | 61.60368 | 25.01325 | 32534 ft | 471 kts | 356° |
| 2026-05-06 08:38 | 61.63610 | 25.01659 | 32905 ft | 464 kts | 351° |
| 2026-05-06 08:38 | 61.66838 | 25.01782 | 33265 ft | 464 kts | 351° |
| 2026-05-06 08:38 | 61.70075 | 25.01903 | 33631 ft | 465 kts | 352° |
| 2026-05-06 08:39 | 61.73310 | 25.02018 | 33978 ft | 466 kts | 352° |
| 2026-05-06 08:39 | 61.76552 | 25.02131 | 34322 ft | 466 kts | 353° |
| 2026-05-06 08:39 | 61.79796 | 25.02245 | 34606 ft | 467 kts | 353° |
| 2026-05-06 08:39 | 61.83046 | 25.02362 | 34926 ft | 467 kts | 353° |
| 2026-05-06 08:40 | 61.86297 | 25.02484 | 35247 ft | 467 kts | 353° |
| 2026-05-06 08:40 | 61.89543 | 25.02606 | 35548 ft | 466 kts | 353° |
| 2026-05-06 08:40 | 61.92787 | 25.02728 | 35819 ft | 467 kts | 353° |
| 2026-05-06 08:41 | 61.99284 | 25.02978 | 35911 ft | 467 kts | 354° |
| 2026-05-06 08:41 | 62.05773 | 25.03234 | 35915 ft | 466 kts | 354° |
| 2026-05-06 08:42 | 62.11163 | 25.03450 | 35917 ft | 466 kts | 354° |
| 2026-05-06 08:42 | 62.17635 | 25.03707 | 35908 ft | 465 kts | 354° |
| 2026-05-06 08:43 | 62.24102 | 25.03948 | 35903 ft | 465 kts | 354° |
| 2026-05-06 08:43 | 62.30572 | 25.04186 | 35906 ft | 465 kts | 354° |
| 2026-05-06 08:44 | 62.37043 | 25.04441 | 35899 ft | 465 kts | 354° |
| 2026-05-06 08:44 | 62.43518 | 25.04700 | 35899 ft | 465 kts | 354° |
| 2026-05-06 08:45 | 62.49987 | 25.04952 | 35896 ft | 465 kts | 354° |
| 2026-05-06 08:45 | 62.56452 | 25.05188 | 35926 ft | 465 kts | 354° |
| 2026-05-06 08:46 | 62.62922 | 25.05444 | 35914 ft | 465 kts | 354° |
| 2026-05-06 08:46 | 62.69385 | 25.05712 | 35907 ft | 465 kts | 354° |
| 2026-05-06 08:47 | 62.75849 | 25.05950 | 35915 ft | 464 kts | 355° |
| 2026-05-06 08:47 | 62.82311 | 25.06184 | 35902 ft | 464 kts | 355° |
| 2026-05-06 08:48 | 62.88771 | 25.06451 | 35879 ft | 464 kts | 355° |
| 2026-05-06 08:48 | 62.95233 | 25.06718 | 35873 ft | 464 kts | 355° |
| 2026-05-06 08:49 | 63.01693 | 25.06979 | 35868 ft | 464 kts | 355° |
| 2026-05-06 08:49 | 63.08152 | 25.07244 | 35906 ft | 464 kts | 355° |
| 2026-05-06 08:50 | 63.14614 | 25.07511 | 35864 ft | 465 kts | 355° |
| 2026-05-06 08:50 | 63.17859 | 25.07639 | 35639 ft | 466 kts | 355° |
| 2026-05-06 08:50 | 63.21101 | 25.07770 | 35402 ft | 466 kts | 355° |
| 2026-05-06 08:50 | 63.24339 | 25.07898 | 35171 ft | 466 kts | 355° |
| 2026-05-06 08:51 | 63.27579 | 25.08026 | 34939 ft | 466 kts | 355° |
| 2026-05-06 08:51 | 63.30816 | 25.08157 | 34722 ft | 465 kts | 355° |
| 2026-05-06 08:51 | 63.34055 | 25.08293 | 34493 ft | 465 kts | 355° |
| 2026-05-06 08:51 | 63.37294 | 25.08429 | 33745 ft | 468 kts | 355° |
| 2026-05-06 08:52 | 63.40528 | 25.08560 | 32607 ft | 474 kts | 355° |
| 2026-05-06 08:52 | 63.43842 | 25.08691 | 31462 ft | 480 kts | 355° |
| 2026-05-06 08:52 | 63.47183 | 25.08825 | 30614 ft | 479 kts | 355° |
| 2026-05-06 08:52 | 63.50514 | 25.08968 | 29643 ft | 479 kts | 355° |
| 2026-05-06 08:53 | 63.53836 | 25.09113 | 28673 ft | 475 kts | 356° |
| 2026-05-06 08:53 | 63.57130 | 25.09262 | 27711 ft | 471 kts | 356° |
| 2026-05-06 08:53 | 63.60377 | 25.09409 | 27013 ft | 462 kts | 356° |
| 2026-05-06 08:53 | 63.63559 | 25.09546 | 26306 ft | 454 kts | 357° |
| 2026-05-06 08:54 | 63.66686 | 25.09675 | 25600 ft | 445 kts | 357° |
| 2026-05-06 08:54 | 63.69759 | 25.09799 | 24904 ft | 438 kts | 357° |
| 2026-05-06 08:54 | 63.72782 | 25.09917 | 24229 ft | 431 kts | 358° |
| 2026-05-06 08:54 | 63.75761 | 25.10032 | 23583 ft | 425 kts | 359° |
| 2026-05-06 08:55 | 63.78697 | 25.10152 | 22850 ft | 419 kts | 358° |
| 2026-05-06 08:55 | 63.81580 | 25.10274 | 22251 ft | 409 kts | 358° |
| 2026-05-06 08:55 | 63.84398 | 25.10395 | 21683 ft | 401 kts | 359° |
| 2026-05-06 08:55 | 63.87164 | 25.10511 | 21158 ft | 394 kts | 359° |
| 2026-05-06 08:56 | 63.89878 | 25.10623 | 20643 ft | 388 kts | 359° |
| 2026-05-06 08:56 | 63.92563 | 25.10731 | 20152 ft | 383 kts | 359° |
| 2026-05-06 08:56 | 63.95207 | 25.10839 | 19663 ft | 378 kts | 0° |
| 2026-05-06 08:56 | 63.97824 | 25.10940 | 19183 ft | 374 kts | 0° |
| 2026-05-06 08:57 | 64.00412 | 25.11040 | 18714 ft | 370 kts | 0° |
| 2026-05-06 08:57 | 64.02973 | 25.11147 | 18238 ft | 366 kts | 1° |
| 2026-05-06 08:57 | 64.05504 | 25.11260 | 17712 ft | 362 kts | 1° |
| 2026-05-06 08:57 | 64.08005 | 25.11369 | 17223 ft | 357 kts | 0° |
| 2026-05-06 08:58 | 64.10473 | 25.11472 | 16730 ft | 352 kts | 0° |
| 2026-05-06 08:58 | 64.12907 | 25.11570 | 16236 ft | 348 kts | 0° |
| 2026-05-06 08:58 | 64.15321 | 25.11670 | 15733 ft | 345 kts | 1° |
| 2026-05-06 08:58 | 64.17709 | 25.11775 | 15250 ft | 342 kts | 0° |
| 2026-05-06 08:59 | 64.20072 | 25.11879 | 14763 ft | 339 kts | 0° |
| 2026-05-06 08:59 | 64.22420 | 25.11980 | 14257 ft | 336 kts | 0° |
| 2026-05-06 08:59 | 64.24749 | 25.12076 | 13772 ft | 334 kts | 0° |
| 2026-05-06 08:59 | 64.27065 | 25.12176 | 13232 ft | 332 kts | 360° |
| 2026-05-06 09:00 | 64.29358 | 25.12276 | 12724 ft | 328 kts | 360° |
| 2026-05-06 09:00 | 64.31622 | 25.12374 | 12230 ft | 324 kts | 0° |
| 2026-05-06 09:00 | 64.33862 | 25.12473 | 11728 ft | 320 kts | 359° |
| 2026-05-06 09:00 | 64.36079 | 25.12570 | 11211 ft | 317 kts | 359° |
| 2026-05-06 09:01 | 64.38275 | 25.12667 | 10708 ft | 314 kts | 359° |
| 2026-05-06 09:01 | 64.40438 | 25.12769 | 10418 ft | 304 kts | 359° |
| 2026-05-06 09:01 | 64.42497 | 25.13328 | 10300 ft | 293 kts | 11° |
| 2026-05-06 09:01 | 64.44397 | 25.14794 | 10134 ft | 284 kts | 22° |
| 2026-05-06 09:02 | 64.46104 | 25.17009 | 9929 ft | 278 kts | 30° |
| 2026-05-06 09:02 | 64.47742 | 25.19358 | 9802 ft | 276 kts | 29° |
| 2026-05-06 09:02 | 64.49378 | 25.21685 | 9667 ft | 276 kts | 30° |
| 2026-05-06 09:02 | 64.51017 | 25.24005 | 9533 ft | 276 kts | 29° |
| 2026-05-06 09:03 | 64.52650 | 25.26323 | 9388 ft | 275 kts | 29° |
| 2026-05-06 09:03 | 64.54276 | 25.28636 | 9116 ft | 274 kts | 29° |
| 2026-05-06 09:03 | 64.55894 | 25.30945 | 8758 ft | 272 kts | 30° |
| 2026-05-06 09:03 | 64.57501 | 25.33249 | 8390 ft | 270 kts | 30° |
| 2026-05-06 09:04 | 64.59097 | 25.35541 | 8017 ft | 268 kts | 29° |
| 2026-05-06 09:04 | 64.60678 | 25.37811 | 7652 ft | 265 kts | 30° |
| 2026-05-06 09:04 | 64.62231 | 25.40045 | 7295 ft | 259 kts | 29° |
| 2026-05-06 09:04 | 64.63746 | 25.42232 | 6948 ft | 253 kts | 29° |
| 2026-05-06 09:05 | 64.65221 | 25.44362 | 6610 ft | 246 kts | 29° |
| 2026-05-06 09:05 | 64.66657 | 25.46435 | 6277 ft | 239 kts | 30° |
| 2026-05-06 09:05 | 64.68052 | 25.48452 | 5943 ft | 232 kts | 28° |
| 2026-05-06 09:05 | 64.69408 | 25.50415 | 5615 ft | 226 kts | 29° |
| 2026-05-06 09:06 | 64.70728 | 25.52329 | 5316 ft | 222 kts | 30° |
| 2026-05-06 09:06 | 64.72037 | 25.54225 | 5012 ft | 221 kts | 31° |
| 2026-05-06 09:06 | 64.73337 | 25.56108 | 4711 ft | 219 kts | 30° |
| 2026-05-06 09:06 | 64.74624 | 25.57982 | 4410 ft | 217 kts | 30° |
| 2026-05-06 09:07 | 64.75899 | 25.59843 | 4109 ft | 215 kts | 30° |
| 2026-05-06 09:07 | 64.77162 | 25.61681 | 3816 ft | 213 kts | 30° |
| 2026-05-06 09:07 | 64.78426 | 25.63489 | 3505 ft | 212 kts | 29° |
| 2026-05-06 09:07 | 64.79690 | 25.65278 | 3197 ft | 212 kts | 30° |
| 2026-05-06 09:08 | 64.80942 | 25.67053 | 2875 ft | 207 kts | 30° |
| 2026-05-06 09:08 | 64.82168 | 25.68682 | 2588 ft | 199 kts | 19° |
| 2026-05-06 09:08 | 64.83513 | 25.68958 | 2308 ft | 195 kts | 347° |
| 2026-05-06 09:08 | 64.84680 | 25.67501 | 2179 ft | 187 kts | 316° |
| 2026-05-06 09:09 | 64.85411 | 25.65052 | 2139 ft | 181 kts | 303° |
| 2026-05-06 09:09 | 64.86055 | 25.62539 | 2096 ft | 178 kts | 303° |
| 2026-05-06 09:09 | 64.86695 | 25.60039 | 2086 ft | 175 kts | 303° |
| 2026-05-06 09:09 | 64.87308 | 25.57657 | 1986 ft | 165 kts | 304° |
| 2026-05-06 09:10 | 64.87876 | 25.55452 | 1925 ft | 149 kts | 304° |
| 2026-05-06 09:10 | 64.88386 | 25.53468 | 1870 ft | 136 kts | 304° |
| 2026-05-06 09:10 | 64.88854 | 25.51639 | 1631 ft | 126 kts | 304° |
| 2026-05-06 09:10 | 64.89300 | 25.49900 | 1427 ft | 122 kts | 303° |
| 2026-05-06 09:11 | 64.89737 | 25.48199 | 1231 ft | 121 kts | 303° |
| 2026-05-06 09:11 | 64.90169 | 25.46512 | 1042 ft | 119 kts | 303° |
| 2026-05-06 09:11 | 64.90592 | 25.44847 | 891 ft | 118 kts | 302° |
| 2026-05-06 09:11 | 64.91042 | 25.43221 | 752 ft | 118 kts | 305° |
| 2026-05-06 09:12 | 64.91458 | 25.41558 | 509 ft | 117 kts | 300° |
| 2026-05-06 09:12 | 64.91881 | 25.39922 | 327 ft | 117 kts | 300° |
| 2026-05-06 09:12 | 64.92289 | 25.38268 | 152 ft | 116 kts | 300° |
| 2026-05-06 09:12 | 64.92697 | 25.36682 | 51 ft | 102 kts | 301° |
| 2026-05-06 09:13 | 64.92980 | 25.35563 | 53 ft | 48 kts | 301° |
| 2026-05-06 09:13 | 64.93100 | 25.35250 | 53 ft | 22 kts | 332° |
| 2026-05-06 09:13 | 64.93208 | 25.35240 | 51 ft | 10 kts | 38° |
| 2026-05-06 09:13 | 64.93220 | 25.35384 | 51 ft | 8 kts | 109° |
| 2026-05-06 09:14 | 64.93187 | 25.35511 | 51 ft | 11 kts | 123° |
| 2026-05-06 09:14 | 64.93140 | 25.35694 | 49 ft | 13 kts | 121° |
| 2026-05-06 09:14 | 64.93095 | 25.35874 | 52 ft | 13 kts | 120° |
| 2026-05-06 09:14 | 64.93048 | 25.36061 | 50 ft | 15 kts | 121° |
| 2026-05-06 09:15 | 64.92992 | 25.36276 | 49 ft | 15 kts | 121° |
| 2026-05-06 09:15 | 64.92942 | 25.36471 | 53 ft | 13 kts | 121° |
| 2026-05-06 09:15 | 64.92900 | 25.36635 | 54 ft | 11 kts | 121° |
| 2026-05-06 09:15 | 64.92863 | 25.36782 | 50 ft | 12 kts | 121° |
| 2026-05-06 09:16 | 64.92804 | 25.37017 | 50 ft | 18 kts | 121° |
| 2026-05-06 09:16 | 64.92751 | 25.37221 | 47 ft | 12 kts | 121° |
| 2026-05-06 09:16 | 64.92721 | 25.37368 | 46 ft | 9 kts | 85° |
| 2026-05-06 09:16 | 64.92758 | 25.37428 | 49 ft | 5 kts | 25° |
| 2026-05-06 09:17 | 64.92778 | 25.37456 | 48 ft | 2 kts | 31° |
| 2026-05-06 09:17 | 64.92784 | 25.37464 | 50 ft | 0 kts | 31° |
| 2026-05-06 09:17 | 64.92785 | 25.37465 | 50 ft | 0 kts | 31° |